createdAt,value
2018-04-28T00:00:31.590Z,13.90
2018-04-28T00:02:59.851Z,13.90
2018-04-28T00:05:27.582Z,13.90
2018-04-28T00:07:55.205Z,13.90
2018-04-28T00:10:22.766Z,13.80
2018-04-28T00:12:50.369Z,13.80
2018-04-28T00:15:17.948Z,13.80
2018-04-28T00:17:45.621Z,13.80
2018-04-28T00:20:14.996Z,13.80
2018-04-28T00:25:49.347Z,13.70
2018-04-28T00:28:42.678Z,13.70
2018-04-28T00:31:30.189Z,13.70
2018-04-28T00:33:58.081Z,13.60
2018-04-28T00:36:42.543Z,13.70
2018-04-28T00:39:10.276Z,13.70
2018-04-28T00:41:39.372Z,13.60
2018-04-28T00:44:23.630Z,13.60
2018-04-28T00:47:07.994Z,13.50
2018-04-28T00:49:41.931Z,13.60
2018-04-28T00:52:09.522Z,13.60
2018-04-28T00:54:38.898Z,13.70
2018-04-28T00:57:23.056Z,13.90
2018-04-28T00:59:52.432Z,13.90
2018-04-28T01:02:20.028Z,14.00
2018-04-28T01:04:47.583Z,14.00
2018-04-28T01:07:17.083Z,14.00
2018-04-28T01:09:44.634Z,14.00
2018-04-28T01:12:12.219Z,14.00
2018-04-28T01:14:43.476Z,14.00
2018-04-28T01:17:28.541Z,14.10
2018-04-28T01:19:58.881Z,14.00
2018-04-28T01:22:30.674Z,14.20
2018-04-28T01:24:58.978Z,14.20
2018-04-28T01:27:30.105Z,14.20
2018-04-28T01:33:27.196Z,14.20
2018-04-28T01:35:55.457Z,14.10
2018-04-28T01:38:25.869Z,14.10
2018-04-28T01:40:54.202Z,14.10
2018-04-28T01:43:33.461Z,13.90
2018-04-28T01:46:20.653Z,13.90
2018-04-28T01:48:49.814Z,13.90
2018-04-28T01:51:18.069Z,13.70
2018-04-28T01:53:48.150Z,13.50
2018-04-28T01:56:20.006Z,13.30
2018-04-28T01:59:01.987Z,13.20
2018-04-28T02:01:30.924Z,13.00
2018-04-28T02:04:09.214Z,12.60
2018-04-28T02:09:32.461Z,12.20
2018-04-28T02:12:01.797Z,12.00
2018-04-28T02:14:51.019Z,11.80
2018-04-28T02:17:18.602Z,11.60
2018-04-28T02:19:48.853Z,11.40
2018-04-28T02:22:22.349Z,11.40
2018-04-28T02:24:55.713Z,11.20
2018-04-28T02:27:24.111Z,11.10
2018-04-28T02:29:52.559Z,11.00
2018-04-28T02:32:20.113Z,10.90
2018-04-28T02:35:04.273Z,10.80
2018-04-28T02:37:40.534Z,10.80
2018-04-28T02:40:23.938Z,10.90
2018-04-28T02:42:53.768Z,10.90
2018-04-28T02:45:26.805Z,10.80
2018-04-28T02:47:54.338Z,10.80
2018-04-28T02:50:27.779Z,10.70
2018-04-28T02:53:01.072Z,10.70
2018-04-28T02:58:38.757Z,10.70
2018-04-28T03:01:08.226Z,10.70
2018-04-28T03:03:38.340Z,10.70
2018-04-28T03:06:06.713Z,10.70
2018-04-28T03:08:49.994Z,10.70
2018-04-28T03:11:22.418Z,10.60
2018-04-28T03:13:51.530Z,10.60
2018-04-28T03:16:29.709Z,10.50
2018-04-28T03:19:00.966Z,10.40
2018-04-28T03:21:28.527Z,10.30
2018-04-28T03:24:23.848Z,10.30
2018-04-28T03:27:05.223Z,10.30
2018-04-28T03:29:34.739Z,10.50
2018-04-28T03:32:03.047Z,11.00
2018-04-28T03:34:42.389Z,11.30
2018-04-28T03:37:24.842Z,11.60
2018-04-28T03:39:54.229Z,11.80
2018-04-28T03:42:27.659Z,12.10
2018-04-28T03:44:57.702Z,12.10
2018-04-28T03:50:22.902Z,12.20
2018-04-28T03:53:05.317Z,12.20
2018-04-28T03:55:32.862Z,12.30
2018-04-28T03:58:12.226Z,12.30
2018-04-28T04:00:51.419Z,12.30
2018-04-28T04:03:22.626Z,12.20
2018-04-28T04:09:05.255Z,12.20
2018-04-28T04:11:54.488Z,12.20
2018-04-28T04:14:27.959Z,12.10
2018-04-28T04:17:06.430Z,12.00
2018-04-28T04:19:40.773Z,11.90
2018-04-28T04:22:28.066Z,11.90
2018-04-28T04:24:58.052Z,11.90
2018-04-28T04:27:31.562Z,11.90
2018-04-28T04:30:06.468Z,11.80
2018-04-28T04:32:34.045Z,11.80
2018-04-28T04:38:08.770Z,11.70
2018-04-28T04:40:52.079Z,11.70
2018-04-28T04:46:32.885Z,11.70
2018-04-28T04:49:18.233Z,11.70
2018-04-28T04:55:04.240Z,11.40
2018-04-28T04:57:55.298Z,11.30
2018-04-28T05:00:28.719Z,11.20
2018-04-28T05:03:20.080Z,11.20
2018-04-28T05:06:24.786Z,11.20
2018-04-28T05:09:00.977Z,11.30
2018-04-28T05:11:56.049Z,11.30
2018-04-28T05:14:30.295Z,11.30
2018-04-28T05:17:01.678Z,11.40
2018-04-28T05:19:31.665Z,11.40
2018-04-28T05:22:08.780Z,11.40
2018-04-28T05:25:13.106Z,11.60
2018-04-28T05:27:52.687Z,11.70
2018-04-28T05:30:37.893Z,11.70
2018-04-28T05:36:12.877Z,11.90
2018-04-28T05:38:48.653Z,12.10
2018-04-28T05:41:27.960Z,12.10
2018-04-28T05:44:17.206Z,12.10
2018-04-28T05:46:56.390Z,12.10
2018-04-28T05:49:26.610Z,12.10
2018-04-28T05:52:01.843Z,12.20
2018-04-28T05:58:08.789Z,12.50
2018-04-28T06:00:44.873Z,12.60
2018-04-28T06:03:27.001Z,12.80
2018-04-28T06:09:30.805Z,13.30
2018-04-28T06:12:05.012Z,13.40
2018-04-28T06:18:09.731Z,14.00
2018-04-28T06:20:41.291Z,14.00
2018-04-28T06:23:09.351Z,14.30
2018-04-28T06:25:37.147Z,14.40
2018-04-28T06:28:04.725Z,14.50
2018-04-28T06:30:32.273Z,14.50
2018-04-28T06:33:00.666Z,14.30
2018-04-28T06:35:28.238Z,14.10
2018-04-28T06:37:55.830Z,13.90
2018-04-28T06:40:23.345Z,13.80
2018-04-28T06:42:50.887Z,13.70
2018-04-28T06:45:18.459Z,13.70
2018-04-28T06:47:46.007Z,13.70
2018-04-28T06:50:13.600Z,13.80
2018-04-28T06:52:41.153Z,13.90
2018-04-28T06:55:10.659Z,14.00
2018-04-28T06:57:38.867Z,14.10
2018-04-28T07:00:06.552Z,14.20
2018-04-28T07:02:34.132Z,14.50
2018-04-28T07:05:01.748Z,14.60
2018-04-28T07:07:29.657Z,14.90
2018-04-28T07:09:57.850Z,15.20
2018-04-28T07:12:25.400Z,15.40
2018-04-28T07:14:53.941Z,15.40
2018-04-28T07:17:21.613Z,15.50
2018-04-28T07:19:49.581Z,15.60
2018-04-28T07:22:17.362Z,15.70
2018-04-28T07:24:44.927Z,15.60
2018-04-28T07:27:13.227Z,15.70
2018-04-28T07:29:40.810Z,15.90
2018-04-28T07:32:08.375Z,15.90
2018-04-28T07:34:35.985Z,16.20
2018-04-28T07:37:03.533Z,16.60
2018-04-28T07:39:31.120Z,16.90
2018-04-28T07:41:58.680Z,17.10
2018-04-28T07:44:26.287Z,17.30
2018-04-28T07:46:53.828Z,17.40
2018-04-28T07:49:21.437Z,17.70
2018-04-28T07:51:49.004Z,18.10
2018-04-28T07:54:16.571Z,18.30
2018-04-28T07:56:44.143Z,18.30
2018-04-28T07:59:11.674Z,18.60
2018-04-28T08:01:39.279Z,18.70
2018-04-28T08:04:06.937Z,18.70
2018-04-28T08:06:34.540Z,18.70
2018-04-28T08:09:02.088Z,18.80
2018-04-28T08:11:30.099Z,18.90
2018-04-28T08:13:57.628Z,19.00
2018-04-28T08:16:25.207Z,18.70
2018-04-28T08:18:52.787Z,18.50
2018-04-28T08:21:20.372Z,18.40
2018-04-28T08:23:47.944Z,18.30
2018-04-28T08:26:15.509Z,18.20
2018-04-28T08:28:43.067Z,18.20
2018-04-28T08:31:10.684Z,18.30
2018-04-28T08:33:38.281Z,18.30
2018-04-28T08:36:05.885Z,18.20
2018-04-28T08:38:33.495Z,18.00
2018-04-28T08:41:01.072Z,18.00
2018-04-28T08:43:28.676Z,17.90
2018-04-28T08:45:56.658Z,18.60
2018-04-28T08:48:24.288Z,18.60
2018-04-28T08:50:51.891Z,19.00
2018-04-28T08:53:19.438Z,19.10
2018-04-28T08:55:46.975Z,19.30
2018-04-28T08:58:14.922Z,20.10
2018-04-28T09:00:48.965Z,20.10
2018-04-28T09:03:16.482Z,20.30
2018-04-28T09:05:44.049Z,20.00
2018-04-28T09:08:11.624Z,19.60
2018-04-28T09:10:39.251Z,19.30
2018-04-28T09:13:06.919Z,19.10
2018-04-28T09:15:34.435Z,19.40
2018-04-28T09:18:01.987Z,19.60
2018-04-28T09:20:29.602Z,19.50
2018-04-28T09:22:57.145Z,19.20
2018-04-28T09:25:24.691Z,19.10
2018-04-28T09:27:52.232Z,18.70
2018-04-28T09:30:19.816Z,18.70
2018-04-28T09:32:47.374Z,19.00
2018-04-28T09:35:14.881Z,18.80
2018-04-28T09:37:42.494Z,18.90
2018-04-28T09:40:10.054Z,19.00
2018-04-28T09:42:37.656Z,18.80
2018-04-28T09:45:05.255Z,18.90
2018-04-28T09:47:32.833Z,18.90
2018-04-28T09:50:00.429Z,18.70
2018-04-28T09:52:28.418Z,18.20
2018-04-28T09:54:55.962Z,18.20
2018-04-28T09:57:23.574Z,18.10
2018-04-28T09:59:51.115Z,18.10
2018-04-28T10:02:18.674Z,18.00
2018-04-28T10:04:46.221Z,18.00
2018-04-28T10:07:13.795Z,18.00
2018-04-28T10:09:41.378Z,17.80
2018-04-28T10:12:08.955Z,17.70
2018-04-28T10:14:36.477Z,17.60
2018-04-28T10:17:04.089Z,17.60
2018-04-28T10:19:31.729Z,17.40
2018-04-28T10:21:59.720Z,16.80
2018-04-28T10:24:27.259Z,16.80
2018-04-28T10:26:54.843Z,16.70
2018-04-28T10:29:22.387Z,16.60
2018-04-28T10:31:49.990Z,16.50
2018-04-28T10:34:17.562Z,16.40
2018-04-28T10:36:45.194Z,16.50
2018-04-28T10:39:12.726Z,16.40
2018-04-28T10:41:40.305Z,16.50
2018-04-28T10:44:07.837Z,16.70
2018-04-28T10:46:35.422Z,16.90
2018-04-28T10:49:02.954Z,16.90
2018-04-28T10:51:30.530Z,17.00
2018-04-28T10:53:58.083Z,17.10
2018-04-28T10:56:25.665Z,17.40
2018-04-28T10:58:53.250Z,17.50
2018-04-28T11:01:21.207Z,17.40
2018-04-28T11:03:48.761Z,17.40
2018-04-28T11:06:16.343Z,17.40
2018-04-28T11:08:43.940Z,17.40
2018-04-28T11:11:11.824Z,17.20
2018-04-28T11:13:39.397Z,17.00
2018-04-28T11:16:06.949Z,17.20
2018-04-28T11:18:34.583Z,17.40
2018-04-28T11:21:02.129Z,17.80
2018-04-28T11:23:29.748Z,18.00
2018-04-28T11:25:57.360Z,17.70
2018-04-28T11:28:24.937Z,17.40
2018-04-28T11:30:52.527Z,17.30
2018-04-28T11:33:20.143Z,17.30
2018-04-28T11:35:47.730Z,17.20
2018-04-28T11:38:15.307Z,17.30
2018-04-28T11:40:42.854Z,17.50
2018-04-28T11:43:10.433Z,17.80
2018-04-28T11:45:37.978Z,17.80
2018-04-28T11:48:05.545Z,18.10
2018-04-28T11:50:33.070Z,18.50
2018-04-28T11:53:00.643Z,18.70
2018-04-28T11:55:28.183Z,19.00
2018-04-28T11:57:55.744Z,19.50
2018-04-28T12:00:23.295Z,20.00
2018-04-28T12:02:50.862Z,20.20
2018-04-28T12:05:18.407Z,20.30
2018-04-28T12:07:45.983Z,20.20
2018-04-28T12:10:13.541Z,20.20
2018-04-28T12:12:41.212Z,21.00
2018-04-28T12:15:08.960Z,22.00
2018-04-28T12:17:36.539Z,23.10
2018-04-28T12:20:04.080Z,24.00
2018-04-28T12:22:31.661Z,24.50
2018-04-28T12:24:59.213Z,24.90
2018-04-28T12:27:26.801Z,25.10
2018-04-28T12:29:54.435Z,25.40
2018-04-28T12:32:21.920Z,25.40
2018-04-28T12:34:49.470Z,24.80
2018-04-28T12:37:17.034Z,24.70
2018-04-28T12:39:44.617Z,24.80
2018-04-28T12:42:12.154Z,23.80
2018-04-28T12:44:39.696Z,23.80
2018-04-28T12:47:07.217Z,23.90
2018-04-28T12:49:34.836Z,24.30
2018-04-28T12:52:02.439Z,24.70
2018-04-28T12:54:30.011Z,25.40
2018-04-28T12:56:57.588Z,26.00
2018-04-28T12:59:25.168Z,26.60
2018-04-28T13:01:52.765Z,27.10
2018-04-28T13:04:20.342Z,26.70
2018-04-28T13:06:47.883Z,26.90
2018-04-28T13:09:15.478Z,27.20
2018-04-28T13:11:42.995Z,27.70
2018-04-28T13:14:10.573Z,28.40
2018-04-28T13:16:38.151Z,29.50
2018-04-28T13:19:05.764Z,30.60
2018-04-28T13:21:33.280Z,31.60
2018-04-28T13:24:00.871Z,32.90
2018-04-28T13:26:28.404Z,32.80
2018-04-28T13:28:55.981Z,33.10
2018-04-28T13:31:23.523Z,33.90
2018-04-28T13:33:51.110Z,34.00
2018-04-28T13:36:18.692Z,32.70
2018-04-28T13:38:46.324Z,30.30
2018-04-28T13:41:13.885Z,27.10
2018-04-28T13:43:41.445Z,25.30
2018-04-28T13:46:08.974Z,24.60
2018-04-28T13:48:36.541Z,25.00
2018-04-28T13:51:04.097Z,27.40
2018-04-28T13:53:31.718Z,30.40
2018-04-28T13:55:59.327Z,32.90
2018-04-28T13:58:26.901Z,34.10
2018-04-28T14:00:54.446Z,35.80
2018-04-28T14:03:22.014Z,36.10
2018-04-28T14:05:49.548Z,37.00
2018-04-28T14:08:17.099Z,37.30
2018-04-28T14:10:44.684Z,36.20
2018-04-28T14:13:12.253Z,34.40
2018-04-28T14:15:39.869Z,34.10
2018-04-28T14:18:07.434Z,35.00
2018-04-28T14:20:35.031Z,35.40
2018-04-28T14:23:02.571Z,36.10
2018-04-28T14:25:30.129Z,36.20
2018-04-28T14:27:57.665Z,34.90
2018-04-28T14:30:25.223Z,34.50
2018-04-28T14:32:52.862Z,34.90
2018-04-28T14:35:20.409Z,35.20
2018-04-28T14:37:47.949Z,35.10
2018-04-28T14:40:15.509Z,34.10
2018-04-28T14:42:43.074Z,32.70
2018-04-28T14:45:10.643Z,30.60
2018-04-28T14:47:38.224Z,31.20
2018-04-28T14:50:05.846Z,32.80
2018-04-28T14:52:33.429Z,34.30
2018-04-28T14:55:01.406Z,37.20
2018-04-28T14:57:28.972Z,37.20
2018-04-28T14:59:56.937Z,35.50
2018-04-28T15:02:24.476Z,35.50
2018-04-28T15:04:52.059Z,35.50
2018-04-28T15:07:19.600Z,34.20
2018-04-28T15:09:47.241Z,33.70
2018-04-28T15:12:14.742Z,33.40
2018-04-28T15:14:42.350Z,32.20
2018-04-28T15:17:09.989Z,32.00
2018-04-28T15:19:37.553Z,31.50
2018-04-28T15:22:05.090Z,32.00
2018-04-28T15:24:32.698Z,33.90
2018-04-28T15:27:00.270Z,35.50
2018-04-28T15:29:28.260Z,36.30
2018-04-28T15:31:55.829Z,36.30
2018-04-28T15:34:23.393Z,36.10
2018-04-28T15:36:50.961Z,35.60
2018-04-28T15:39:18.525Z,35.10
2018-04-28T15:41:46.075Z,34.90
2018-04-28T15:44:13.597Z,34.40
2018-04-28T15:46:41.144Z,34.40
2018-04-28T15:49:09.887Z,33.70
2018-04-28T15:51:37.503Z,33.70
2018-04-28T15:54:05.094Z,34.10
2018-04-28T15:56:32.714Z,35.00
2018-04-28T15:59:00.292Z,35.20
2018-04-28T16:01:27.872Z,33.70
2018-04-28T16:03:55.430Z,32.80
2018-04-28T16:06:22.994Z,32.00
2018-04-28T16:08:50.618Z,31.10
2018-04-28T16:11:18.171Z,30.60
2018-04-28T16:13:45.717Z,30.00
2018-04-28T16:16:13.309Z,29.60
2018-04-28T16:18:40.873Z,28.60
2018-04-28T16:21:08.494Z,28.30
2018-04-28T16:23:36.070Z,29.20
2018-04-28T16:26:03.772Z,30.10
2018-04-28T16:28:31.307Z,30.20
2018-04-28T16:30:58.939Z,30.10
2018-04-28T16:33:26.566Z,29.80
2018-04-28T16:35:54.194Z,28.60
2018-04-28T16:38:21.732Z,27.90
2018-04-28T16:40:49.353Z,26.80
2018-04-28T16:43:16.943Z,25.50
2018-04-28T16:45:44.525Z,25.00
2018-04-28T16:48:12.065Z,24.70
2018-04-28T16:50:39.716Z,24.10
2018-04-28T16:53:07.253Z,23.90
2018-04-28T16:55:34.866Z,23.80
2018-04-28T16:58:02.397Z,23.60
2018-04-28T17:00:29.986Z,23.10
2018-04-28T17:02:57.534Z,22.80
2018-04-28T17:05:25.132Z,22.30
2018-04-28T17:07:52.697Z,21.90
2018-04-28T17:10:20.284Z,21.70
2018-04-28T17:12:47.907Z,21.30
2018-04-28T17:15:15.919Z,20.80
2018-04-28T17:17:53.404Z,20.80
2018-04-28T17:20:20.970Z,20.70
2018-04-28T17:22:48.583Z,20.70
2018-04-28T17:25:16.160Z,20.50
2018-04-28T17:27:43.739Z,20.30
2018-04-28T17:30:11.270Z,20.10
2018-04-28T17:32:38.868Z,19.70
2018-04-28T17:35:06.455Z,19.30
2018-04-28T17:37:34.058Z,19.10
2018-04-28T17:40:02.041Z,19.10
2018-04-28T17:42:38.821Z,19.10
2018-04-28T17:45:06.863Z,19.30
2018-04-28T17:47:34.404Z,19.90
2018-04-28T17:50:02.688Z,20.20
2018-04-28T17:52:31.325Z,20.40
2018-04-28T17:54:58.857Z,20.40
2018-04-28T17:57:26.863Z,20.00
2018-04-28T17:59:54.617Z,19.50
2018-04-28T18:02:22.378Z,19.10
2018-04-28T18:04:49.933Z,18.90
2018-04-28T18:07:17.519Z,18.70
2018-04-28T18:09:45.071Z,18.60
2018-04-28T18:12:12.694Z,18.40
2018-04-28T18:14:40.305Z,18.30
2018-04-28T18:17:07.846Z,18.10
2018-04-28T18:19:35.421Z,18.00
2018-04-28T18:22:03.021Z,18.00
2018-04-28T18:24:30.592Z,17.90
2018-04-28T18:26:58.174Z,17.90
2018-04-28T18:29:25.755Z,17.80
2018-04-28T18:31:53.319Z,17.60
2018-04-28T18:34:21.119Z,17.50
2018-04-28T18:36:48.704Z,17.40
2018-04-28T18:39:16.233Z,17.40
2018-04-28T18:41:43.818Z,17.30
2018-04-28T18:44:11.345Z,17.10
2018-04-28T18:46:38.955Z,17.10
2018-04-28T18:49:06.567Z,17.10
2018-04-28T18:51:34.132Z,17.10
2018-04-28T18:54:01.678Z,17.10
2018-04-28T18:56:29.236Z,17.20
2018-04-28T18:58:56.847Z,17.10
2018-04-28T19:01:24.383Z,17.00
2018-04-28T19:03:51.952Z,16.90
2018-04-28T19:06:19.502Z,16.70
2018-04-28T19:08:47.082Z,16.60
2018-04-28T19:11:14.686Z,16.50
2018-04-28T19:13:42.250Z,16.50
2018-04-28T19:16:09.816Z,16.50
2018-04-28T19:18:37.436Z,16.30
2018-04-28T19:21:04.994Z,16.30
2018-04-28T19:23:32.990Z,16.20
2018-04-28T19:26:00.565Z,16.20
2018-04-28T19:28:28.183Z,16.10
2018-04-28T19:30:55.717Z,16.10
2018-04-28T19:33:23.280Z,15.90
2018-04-28T19:35:50.822Z,15.70
2018-04-28T19:38:18.468Z,15.60
2018-04-28T19:40:45.984Z,15.40
2018-04-28T19:43:13.555Z,15.30
2018-04-28T19:45:41.206Z,15.30
2018-04-28T19:48:08.778Z,15.20
2018-04-28T19:50:36.399Z,15.20
2018-04-28T19:53:03.998Z,15.20
2018-04-28T19:55:31.552Z,15.20
2018-04-28T19:57:59.117Z,15.10
2018-04-28T20:00:26.712Z,15.00
2018-04-28T20:02:59.098Z,14.80
2018-04-28T20:05:26.761Z,14.60
2018-04-28T20:07:54.302Z,14.50
2018-04-28T20:10:22.091Z,14.50
2018-04-28T20:12:49.763Z,14.60
2018-04-28T20:15:17.281Z,14.60
2018-04-28T20:17:44.841Z,14.60
2018-04-28T20:20:12.362Z,14.60
2018-04-28T20:22:51.710Z,14.60
2018-04-28T20:25:21.668Z,14.50
2018-04-28T20:27:49.229Z,14.50
2018-04-28T20:30:16.861Z,14.50
2018-04-28T20:32:44.396Z,14.50
2018-04-28T20:35:37.285Z,14.50
2018-04-28T20:38:04.996Z,14.50
2018-04-28T20:40:32.523Z,14.50
2018-04-28T20:43:00.174Z,14.50
2018-04-28T20:45:28.184Z,14.50
2018-04-28T20:47:55.725Z,14.50
2018-04-28T20:50:23.654Z,14.40
2018-04-28T20:52:51.274Z,14.40
2018-04-28T20:55:18.807Z,14.40
2018-04-28T20:57:46.341Z,14.40
2018-04-28T21:00:13.933Z,14.30
2018-04-28T21:02:41.515Z,14.20
2018-04-28T21:05:09.105Z,14.10
2018-04-28T21:07:36.657Z,14.00
2018-04-28T21:10:05.020Z,13.90
2018-04-28T21:12:33.653Z,13.90
2018-04-28T21:15:01.242Z,13.90
2018-04-28T21:17:28.779Z,13.90
2018-04-28T21:19:57.291Z,13.80
2018-04-28T21:22:24.842Z,13.70
2018-04-28T21:24:52.443Z,13.70
2018-04-28T21:27:19.989Z,13.70
2018-04-28T21:29:47.557Z,13.50
2018-04-28T21:32:15.100Z,13.20
2018-04-28T21:34:42.727Z,13.00
2018-04-28T21:37:10.306Z,12.90
2018-04-28T21:39:37.900Z,13.00
2018-04-28T21:42:05.475Z,13.00
2018-04-28T21:44:33.083Z,13.00
2018-04-28T21:47:00.653Z,12.90
2018-04-28T21:49:28.268Z,12.80
2018-04-28T21:51:59.132Z,12.70
2018-04-28T21:54:26.799Z,12.70
2018-04-28T21:56:54.360Z,12.70
2018-04-28T21:59:21.941Z,12.70
2018-04-28T22:01:49.493Z,12.70
2018-04-28T22:04:17.041Z,12.60
2018-04-28T22:06:44.621Z,12.50
2018-04-28T22:09:12.209Z,12.50
2018-04-28T22:11:40.193Z,12.40
2018-04-28T22:14:07.749Z,12.40
2018-04-28T22:16:35.310Z,12.40
2018-04-28T22:19:02.936Z,12.30
2018-04-28T22:21:30.906Z,12.10
2018-04-28T22:23:58.488Z,12.10
2018-04-28T22:26:26.071Z,12.10
2018-04-28T22:28:53.617Z,12.00
2018-04-28T22:31:21.196Z,11.70
2018-04-28T22:33:48.747Z,11.60
2018-04-28T22:36:16.375Z,11.60
2018-04-28T22:38:44.391Z,11.60
2018-04-28T22:41:11.998Z,11.60
2018-04-28T22:43:39.563Z,11.60
2018-04-28T22:46:07.149Z,11.50
2018-04-28T22:48:34.707Z,11.40
2018-04-28T22:51:02.293Z,11.50
2018-04-28T22:53:29.845Z,11.40
2018-04-28T22:55:57.433Z,11.40
2018-04-28T22:58:24.986Z,11.40
2018-04-28T23:00:52.607Z,11.30
2018-04-28T23:03:20.183Z,11.30
2018-04-28T23:05:47.747Z,11.20
2018-04-28T23:08:15.272Z,11.30
2018-04-28T23:10:42.900Z,11.30
2018-04-28T23:13:10.837Z,11.20
2018-04-28T23:15:38.435Z,11.20
2018-04-28T23:18:06.011Z,11.10
2018-04-28T23:20:33.581Z,11.10
2018-04-28T23:23:01.109Z,11.10
2018-04-28T23:25:28.725Z,11.20
2018-04-28T23:27:56.265Z,11.20
2018-04-28T23:30:23.827Z,11.30
2018-04-28T23:32:51.365Z,11.40
2018-04-28T23:35:18.981Z,11.40
2018-04-28T23:37:46.909Z,11.50
2018-04-28T23:40:14.537Z,11.50
2018-04-28T23:42:42.157Z,11.50
2018-04-28T23:45:09.751Z,11.50
2018-04-28T23:47:37.275Z,11.50
2018-04-28T23:50:04.870Z,11.50
2018-04-28T23:52:32.457Z,11.60
2018-04-28T23:55:00.040Z,11.60
2018-04-28T23:57:27.653Z,11.50
2018-04-28T23:59:55.238Z,11.50
